To NAV CANADA Home Page Login to a new session Search on AWWS site Feedback and Comments Disclaimer Vers la page française équivalente Tips FAQ What's new on the site To the Forecasts and Observations / NOTAM section To "File a Flight Plan" website Publications and other links Update of the User's profile FIC Telephone Numbers My Weather Data Folder Route Weather Data Regional Weather Data Local Weather Data To the Forecasts and Observations / NOTAM section
Request Generated 04/21/2014 at 14:40:42 UTC . Weather information available at that time is displayed.

METAR/TAF

NORTH BATTLEFORD/SK    (show WxCam)

METAR CYQW 211400Z AUTO 11002KT 9SM CLR 01/01 A3014 RMK SLP233=
METAR CYQW 211300Z AUTO 06003KT 8SM CLR M03/M03 A3014 RMK SLP235=
SPECI CYQW 211241Z AUTO 07002KT 7SM CLR M04/M04 A3014 RMK SLP232=
SPECI CYQW 211234Z AUTO 06002KT 3SM BR CLR M04/M04 A3014 RMK SLP233=
SPECI CYQW 211233Z AUTO 06003KT 2 1/2SM BR CLR M04/M04 A3014 RMK VIS
VRB 1-3 SLP232=
SPECI CYQW 211232Z AUTO 07003KT 1 3/4SM BR CLR M04/M04 A3014 RMK VIS
VRB 3/8-3 SLP232=
SPECI CYQW 211223Z AUTO 07004KT 5/8SM BR CLR M04/M04 A3013 RMK
SLP230=
METAR CYQW 211200Z AUTO 00000KT 1/8SM FZFG CLR M02/M02 A3013 RMK ICG
PAST HR SLP229=

TAF CYQW 211138Z 2112/2124 VRB03KT 1/2SM FZFG BKN003 TEMPO 2112/2115
6SM BR SCT003
FM211500 20008KT P6SM SCT070 TEMPO 2115/2118 3SM BR BKN070
FM211800 VRB03KT P6SM FEW070 SCT120
BECMG 2120/2122 12008KT
RMK FCST BASED ON AUTO OBS. NXT FCST BY 211800Z=
Your time UTC time
Weather data provided by Environment Canada and NAV CANADA